sensor_id;sensor_type;location;lat;lon;timestamp;P1;durP1;ratioP1;P2;durP2;ratioP2
4210;SDS011;2119;48.828;12.396;2022-11-20T00:02:59;34.77;;;18.10;;
4210;SDS011;2119;48.828;12.396;2022-11-20T00:07:59;36.58;;;19.73;;
4210;SDS011;2119;48.828;12.396;2022-11-20T00:13:07;35.00;;;18.38;;
4210;SDS011;2119;48.828;12.396;2022-11-20T00:18:07;30.60;;;16.97;;
4210;SDS011;2119;48.828;12.396;2022-11-20T00:23:19;31.70;;;17.20;;
4210;SDS011;2119;48.828;12.396;2022-11-20T00:28:19;34.70;;;18.00;;
4210;SDS011;2119;48.828;12.396;2022-11-20T00:33:20;35.05;;;18.50;;
4210;SDS011;2119;48.828;12.396;2022-11-20T00:38:23;41.40;;;19.63;;
4210;SDS011;2119;48.828;12.396;2022-11-20T00:43:23;35.70;;;17.93;;
4210;SDS011;2119;48.828;12.396;2022-11-20T00:59:05;30.20;;;16.20;;
4210;SDS011;2119;48.828;12.396;2022-11-20T01:04:11;28.90;;;15.10;;
4210;SDS011;2119;48.828;12.396;2022-11-20T01:09:12;28.20;;;15.50;;
4210;SDS011;2119;48.828;12.396;2022-11-20T01:14:18;35.33;;;17.67;;
4210;SDS011;2119;48.828;12.396;2022-11-20T01:29:53;35.87;;;17.20;;
4210;SDS011;2119;48.828;12.396;2022-11-20T01:35:06;33.38;;;18.13;;
4210;SDS011;2119;48.828;12.396;2022-11-20T01:40:25;35.83;;;17.97;;
4210;SDS011;2119;48.828;12.396;2022-11-20T01:50:45;32.73;;;16.90;;
4210;SDS011;2119;48.828;12.396;2022-11-20T01:55:47;32.30;;;16.20;;
4210;SDS011;2119;48.828;12.396;2022-11-20T02:00:50;24.97;;;14.30;;
4210;SDS011;2119;48.828;12.396;2022-11-20T02:05:51;29.27;;;15.50;;
4210;SDS011;2119;48.828;12.396;2022-11-20T02:15:59;29.00;;;16.63;;
4210;SDS011;2119;48.828;12.396;2022-11-20T02:21:33;32.40;;;17.37;;
4210;SDS011;2119;48.828;12.396;2022-11-20T02:31:45;29.40;;;17.40;;
4210;SDS011;2119;48.828;12.396;2022-11-20T02:36:45;33.30;;;16.92;;
4210;SDS011;2119;48.828;12.396;2022-11-20T02:42:01;30.50;;;16.40;;
4210;SDS011;2119;48.828;12.396;2022-11-20T02:47:19;31.93;;;17.40;;
4210;SDS011;2119;48.828;12.396;2022-11-20T02:52:22;29.73;;;15.97;;
4210;SDS011;2119;48.828;12.396;2022-11-20T02:57:25;34.03;;;17.87;;
4210;SDS011;2119;48.828;12.396;2022-11-20T03:02:25;34.57;;;18.40;;
4210;SDS011;2119;48.828;12.396;2022-11-20T03:07:27;34.08;;;18.08;;
4210;SDS011;2119;48.828;12.396;2022-11-20T03:12:28;42.70;;;19.27;;
4210;SDS011;2119;48.828;12.396;2022-11-20T03:17:30;34.87;;;17.20;;
4210;SDS011;2119;48.828;12.396;2022-11-20T03:22:31;36.00;;;17.33;;
4210;SDS011;2119;48.828;12.396;2022-11-20T03:27:35;36.27;;;18.30;;
4210;SDS011;2119;48.828;12.396;2022-11-20T03:32:37;40.07;;;18.70;;
4210;SDS011;2119;48.828;12.396;2022-11-20T03:37:37;33.17;;;16.80;;
4210;SDS011;2119;48.828;12.396;2022-11-20T03:42:37;34.75;;;16.65;;
4210;SDS011;2119;48.828;12.396;2022-11-20T03:47:47;35.07;;;17.33;;
4210;SDS011;2119;48.828;12.396;2022-11-20T03:52:47;36.03;;;17.80;;
4210;SDS011;2119;48.828;12.396;2022-11-20T04:08:15;43.63;;;18.47;;
4210;SDS011;2119;48.828;12.396;2022-11-20T04:18:20;39.83;;;20.10;;
4210;SDS011;2119;48.828;12.396;2022-11-20T04:23:37;37.13;;;18.33;;
4210;SDS011;2119;48.828;12.396;2022-11-20T04:28:38;35.30;;;17.60;;
4210;SDS011;2119;48.828;12.396;2022-11-20T04:33:43;43.17;;;19.00;;
4210;SDS011;2119;48.828;12.396;2022-11-20T04:38:55;35.67;;;17.40;;
4210;SDS011;2119;48.828;12.396;2022-11-20T04:43:59;38.40;;;18.33;;
4210;SDS011;2119;48.828;12.396;2022-11-20T04:49:02;38.90;;;18.60;;
4210;SDS011;2119;48.828;12.396;2022-11-20T05:05:00;35.17;;;18.20;;
4210;SDS011;2119;48.828;12.396;2022-11-20T05:10:13;44.97;;;19.60;;
4210;SDS011;2119;48.828;12.396;2022-11-20T05:15:13;37.03;;;17.30;;
4210;SDS011;2119;48.828;12.396;2022-11-20T05:20:13;33.15;;;18.25;;
4210;SDS011;2119;48.828;12.396;2022-11-20T05:25:13;33.33;;;17.42;;
4210;SDS011;2119;48.828;12.396;2022-11-20T05:30:14;39.17;;;19.27;;
4210;SDS011;2119;48.828;12.396;2022-11-20T05:35:16;38.13;;;18.70;;
4210;SDS011;2119;48.828;12.396;2022-11-20T05:40:17;39.70;;;18.43;;
4210;SDS011;2119;48.828;12.396;2022-11-20T05:45:19;32.27;;;17.23;;
4210;SDS011;2119;48.828;12.396;2022-11-20T05:50:19;36.80;;;18.37;;
4210;SDS011;2119;48.828;12.396;2022-11-20T05:55:28;36.30;;;17.10;;
4210;SDS011;2119;48.828;12.396;2022-11-20T06:00:28;37.00;;;16.70;;
4210;SDS011;2119;48.828;12.396;2022-11-20T06:05:30;33.90;;;16.43;;
4210;SDS011;2119;48.828;12.396;2022-11-20T06:10:31;37.40;;;18.00;;
4210;SDS011;2119;48.828;12.396;2022-11-20T06:15:31;31.90;;;15.87;;
4210;SDS011;2119;48.828;12.396;2022-11-20T06:20:31;29.90;;;14.60;;
4210;SDS011;2119;48.828;12.396;2022-11-20T06:25:38;26.40;;;14.20;;
4210;SDS011;2119;48.828;12.396;2022-11-20T06:30:44;26.43;;;14.57;;
4210;SDS011;2119;48.828;12.396;2022-11-20T06:35:47;23.80;;;13.30;;
4210;SDS011;2119;48.828;12.396;2022-11-20T06:40:51;23.67;;;13.80;;
4210;SDS011;2119;48.828;12.396;2022-11-20T06:45:54;30.90;;;17.90;;
4210;SDS011;2119;48.828;12.396;2022-11-20T06:50:55;30.30;;;18.83;;
4210;SDS011;2119;48.828;12.396;2022-11-20T06:56:07;28.07;;;16.57;;
4210;SDS011;2119;48.828;12.396;2022-11-20T07:01:09;22.50;;;14.13;;
4210;SDS011;2119;48.828;12.396;2022-11-20T07:06:09;20.53;;;12.63;;
4210;SDS011;2119;48.828;12.396;2022-11-20T07:11:11;25.80;;;13.90;;
4210;SDS011;2119;48.828;12.396;2022-11-20T07:16:11;19.17;;;12.33;;
4210;SDS011;2119;48.828;12.396;2022-11-20T07:21:16;32.95;;;16.92;;
4210;SDS011;2119;48.828;12.396;2022-11-20T07:26:16;28.47;;;15.03;;
4210;SDS011;2119;48.828;12.396;2022-11-20T07:31:16;25.73;;;15.10;;
4210;SDS011;2119;48.828;12.396;2022-11-20T07:36:18;25.30;;;13.65;;
4210;SDS011;2119;48.828;12.396;2022-11-20T07:41:21;24.83;;;14.20;;
4210;SDS011;2119;48.828;12.396;2022-11-20T07:46:21;26.27;;;13.70;;
4210;SDS011;2119;48.828;12.396;2022-11-20T07:51:23;29.77;;;15.05;;
4210;SDS011;2119;48.828;12.396;2022-11-20T07:56:26;29.37;;;15.40;;
4210;SDS011;2119;48.828;12.396;2022-11-20T08:01:28;26.03;;;14.23;;
4210;SDS011;2119;48.828;12.396;2022-11-20T08:06:31;34.30;;;18.40;;
4210;SDS011;2119;48.828;12.396;2022-11-20T08:11:38;35.30;;;19.10;;
4210;SDS011;2119;48.828;12.396;2022-11-20T08:16:57;29.37;;;15.77;;
4210;SDS011;2119;48.828;12.396;2022-11-20T08:21:57;32.53;;;18.87;;
4210;SDS011;2119;48.828;12.396;2022-11-20T08:27:10;30.13;;;17.77;;
4210;SDS011;2119;48.828;12.396;2022-11-20T08:32:11;34.80;;;18.27;;
4210;SDS011;2119;48.828;12.396;2022-11-20T08:37:24;29.00;;;15.80;;
4210;SDS011;2119;48.828;12.396;2022-11-20T08:42:24;28.53;;;15.63;;
4210;SDS011;2119;48.828;12.396;2022-11-20T08:47:32;34.33;;;15.35;;
4210;SDS011;2119;48.828;12.396;2022-11-20T08:52:32;49.37;;;24.00;;
4210;SDS011;2119;48.828;12.396;2022-11-20T08:57:33;32.13;;;17.00;;
4210;SDS011;2119;48.828;12.396;2022-11-20T09:02:34;21.53;;;13.53;;
4210;SDS011;2119;48.828;12.396;2022-11-20T09:07:36;22.03;;;13.57;;
4210;SDS011;2119;48.828;12.396;2022-11-20T09:12:36;13.60;;;10.90;;
4210;SDS011;2119;48.828;12.396;2022-11-20T09:17:36;14.15;;;11.02;;
4210;SDS011;2119;48.828;12.396;2022-11-20T09:22:39;16.30;;;11.23;;
4210;SDS011;2119;48.828;12.396;2022-11-20T09:27:39;12.17;;;9.40;;
4210;SDS011;2119;48.828;12.396;2022-11-20T09:32:42;11.03;;;9.17;;
4210;SDS011;2119;48.828;12.396;2022-11-20T09:37:44;14.50;;;10.47;;
4210;SDS011;2119;48.828;12.396;2022-11-20T09:42:47;22.67;;;13.60;;
4210;SDS011;2119;48.828;12.396;2022-11-20T09:58:32;19.13;;;13.03;;
4210;SDS011;2119;48.828;12.396;2022-11-20T10:29:17;5.23;;;4.80;;
4210;SDS011;2119;48.828;12.396;2022-11-20T10:34:20;6.77;;;6.17;;
4210;SDS011;2119;48.828;12.396;2022-11-20T10:39:25;7.37;;;6.63;;
4210;SDS011;2119;48.828;12.396;2022-11-20T10:44:27;6.93;;;6.30;;
4210;SDS011;2119;48.828;12.396;2022-11-20T10:49:54;7.07;;;4.90;;
4210;SDS011;2119;48.828;12.396;2022-11-20T10:59:59;6.35;;;5.75;;
4210;SDS011;2119;48.828;12.396;2022-11-20T11:05:08;6.47;;;5.50;;
4210;SDS011;2119;48.828;12.396;2022-11-20T11:10:15;6.10;;;5.27;;
4210;SDS011;2119;48.828;12.396;2022-11-20T11:15:35;5.90;;;5.03;;
4210;SDS011;2119;48.828;12.396;2022-11-20T11:20:37;4.37;;;3.97;;
4210;SDS011;2119;48.828;12.396;2022-11-20T11:25:37;3.93;;;3.50;;
4210;SDS011;2119;48.828;12.396;2022-11-20T11:30:42;4.80;;;4.23;;
4210;SDS011;2119;48.828;12.396;2022-11-20T11:35:46;4.37;;;3.97;;
4210;SDS011;2119;48.828;12.396;2022-11-20T11:40:46;4.30;;;4.00;;
4210;SDS011;2119;48.828;12.396;2022-11-20T11:45:53;3.90;;;3.50;;
4210;SDS011;2119;48.828;12.396;2022-11-20T11:51:07;4.10;;;3.50;;
4210;SDS011;2119;48.828;12.396;2022-11-20T11:56:09;3.00;;;2.80;;
4210;SDS011;2119;48.828;12.396;2022-11-20T12:21:51;4.03;;;3.50;;
4210;SDS011;2119;48.828;12.396;2022-11-20T12:32:06;3.30;;;3.03;;
4210;SDS011;2119;48.828;12.396;2022-11-20T12:37:25;4.90;;;3.90;;
4210;SDS011;2119;48.828;12.396;2022-11-20T12:42:43;3.47;;;3.17;;
4210;SDS011;2119;48.828;12.396;2022-11-20T12:48:14;2.93;;;2.73;;
4210;SDS011;2119;48.828;12.396;2022-11-20T12:58:41;3.27;;;3.07;;
4210;SDS011;2119;48.828;12.396;2022-11-20T13:03:47;4.00;;;3.30;;
4210;SDS011;2119;48.828;12.396;2022-11-20T13:08:55;3.90;;;3.60;;
4210;SDS011;2119;48.828;12.396;2022-11-20T13:19:23;3.47;;;3.20;;
4210;SDS011;2119;48.828;12.396;2022-11-20T13:24:25;2.90;;;2.70;;
4210;SDS011;2119;48.828;12.396;2022-11-20T13:29:30;3.70;;;3.40;;
4210;SDS011;2119;48.828;12.396;2022-11-20T13:34:30;3.90;;;3.60;;
4210;SDS011;2119;48.828;12.396;2022-11-20T13:39:35;4.40;;;4.10;;
4210;SDS011;2119;48.828;12.396;2022-11-20T13:44:38;3.73;;;3.40;;
4210;SDS011;2119;48.828;12.396;2022-11-20T13:49:41;3.47;;;2.93;;
4210;SDS011;2119;48.828;12.396;2022-11-20T14:00:20;4.33;;;3.23;;
4210;SDS011;2119;48.828;12.396;2022-11-20T14:05:23;4.03;;;3.23;;
4210;SDS011;2119;48.828;12.396;2022-11-20T14:10:31;7.57;;;5.20;;
4210;SDS011;2119;48.828;12.396;2022-11-20T14:15:32;4.60;;;4.13;;
4210;SDS011;2119;48.828;12.396;2022-11-20T14:20:42;4.30;;;3.90;;
4210;SDS011;2119;48.828;12.396;2022-11-20T14:25:46;4.40;;;3.70;;
4210;SDS011;2119;48.828;12.396;2022-11-20T14:30:53;7.60;;;6.70;;
4210;SDS011;2119;48.828;12.396;2022-11-20T14:35:54;5.33;;;4.90;;
4210;SDS011;2119;48.828;12.396;2022-11-20T14:41:06;7.57;;;6.77;;
4210;SDS011;2119;48.828;12.396;2022-11-20T14:46:15;6.63;;;6.00;;
4210;SDS011;2119;48.828;12.396;2022-11-20T14:56:38;5.40;;;4.90;;
4210;SDS011;2119;48.828;12.396;2022-11-20T15:01:38;4.63;;;4.23;;
4210;SDS011;2119;48.828;12.396;2022-11-20T15:06:48;7.25;;;4.70;;
4210;SDS011;2119;48.828;12.396;2022-11-20T15:12:02;12.17;;;8.47;;
4210;SDS011;2119;48.828;12.396;2022-11-20T15:17:03;9.60;;;6.13;;
4210;SDS011;2119;48.828;12.396;2022-11-20T15:22:07;14.50;;;9.45;;
4210;SDS011;2119;48.828;12.396;2022-11-20T15:27:09;8.60;;;6.30;;
4210;SDS011;2119;48.828;12.396;2022-11-20T15:32:10;10.97;;;8.50;;
4210;SDS011;2119;48.828;12.396;2022-11-20T15:37:11;9.83;;;6.67;;
4210;SDS011;2119;48.828;12.396;2022-11-20T15:42:11;12.23;;;7.40;;
4210;SDS011;2119;48.828;12.396;2022-11-20T15:47:12;7.43;;;6.40;;
4210;SDS011;2119;48.828;12.396;2022-11-20T15:52:21;10.55;;;7.85;;
4210;SDS011;2119;48.828;12.396;2022-11-20T15:57:30;6.50;;;5.90;;
4210;SDS011;2119;48.828;12.396;2022-11-20T16:02:32;12.90;;;6.37;;
4210;SDS011;2119;48.828;12.396;2022-11-20T16:07:33;15.83;;;10.90;;
4210;SDS011;2119;48.828;12.396;2022-11-20T16:12:36;9.80;;;7.50;;
4210;SDS011;2119;48.828;12.396;2022-11-20T16:17:55;6.57;;;5.50;;
4210;SDS011;2119;48.828;12.396;2022-11-20T16:22:56;9.83;;;5.73;;
4210;SDS011;2119;48.828;12.396;2022-11-20T16:27:59;14.50;;;6.20;;
4210;SDS011;2119;48.828;12.396;2022-11-20T16:33:10;10.37;;;4.23;;
4210;SDS011;2119;48.828;12.396;2022-11-20T16:38:12;17.50;;;6.33;;
4210;SDS011;2119;48.828;12.396;2022-11-20T16:43:15;16.37;;;8.23;;
4210;SDS011;2119;48.828;12.396;2022-11-20T16:48:17;12.37;;;6.50;;
4210;SDS011;2119;48.828;12.396;2022-11-20T16:53:18;12.80;;;5.70;;
4210;SDS011;2119;48.828;12.396;2022-11-20T16:58:20;17.80;;;9.40;;
4210;SDS011;2119;48.828;12.396;2022-11-20T17:03:22;17.50;;;8.30;;
4210;SDS011;2119;48.828;12.396;2022-11-20T17:08:22;5.00;;;4.40;;
4210;SDS011;2119;48.828;12.396;2022-11-20T17:13:22;4.20;;;3.90;;
4210;SDS011;2119;48.828;12.396;2022-11-20T17:18:23;9.52;;;7.95;;
4210;SDS011;2119;48.828;12.396;2022-11-20T17:23:23;6.40;;;5.80;;
4210;SDS011;2119;48.828;12.396;2022-11-20T17:28:23;7.68;;;6.68;;
4210;SDS011;2119;48.828;12.396;2022-11-20T17:33:30;8.10;;;7.30;;
4210;SDS011;2119;48.828;12.396;2022-11-20T17:38:31;9.63;;;7.50;;
4210;SDS011;2119;48.828;12.396;2022-11-20T17:43:31;12.03;;;7.50;;
4210;SDS011;2119;48.828;12.396;2022-11-20T17:48:32;12.23;;;9.53;;
4210;SDS011;2119;48.828;12.396;2022-11-20T17:53:33;23.80;;;13.53;;
4210;SDS011;2119;48.828;12.396;2022-11-20T17:58:34;9.47;;;8.40;;
4210;SDS011;2119;48.828;12.396;2022-11-20T18:03:34;14.25;;;8.95;;
4210;SDS011;2119;48.828;12.396;2022-11-20T18:08:34;16.58;;;11.10;;
4210;SDS011;2119;48.828;12.396;2022-11-20T18:13:36;10.80;;;9.30;;
4210;SDS011;2119;48.828;12.396;2022-11-20T18:18:55;33.30;;;17.40;;
4210;SDS011;2119;48.828;12.396;2022-11-20T18:23:56;39.63;;;20.10;;
4210;SDS011;2119;48.828;12.396;2022-11-20T18:28:57;17.37;;;12.13;;
4210;SDS011;2119;48.828;12.396;2022-11-20T18:33:57;17.15;;;14.45;;
4210;SDS011;2119;48.828;12.396;2022-11-20T18:38:58;22.02;;;16.95;;
4210;SDS011;2119;48.828;12.396;2022-11-20T18:43:59;22.30;;;16.40;;
4210;SDS011;2119;48.828;12.396;2022-11-20T18:49:18;31.60;;;19.10;;
4210;SDS011;2119;48.828;12.396;2022-11-20T18:54:21;39.20;;;25.30;;
4210;SDS011;2119;48.828;12.396;2022-11-20T18:59:22;30.13;;;22.40;;
4210;SDS011;2119;48.828;12.396;2022-11-20T19:09:26;31.80;;;19.43;;
4210;SDS011;2119;48.828;12.396;2022-11-20T19:14:29;30.40;;;19.30;;
4210;SDS011;2119;48.828;12.396;2022-11-20T19:19:29;27.67;;;17.77;;
4210;SDS011;2119;48.828;12.396;2022-11-20T19:24:29;16.97;;;13.67;;
4210;SDS011;2119;48.828;12.396;2022-11-20T19:29:34;18.43;;;13.83;;
4210;SDS011;2119;48.828;12.396;2022-11-20T19:34:35;26.97;;;21.10;;
4210;SDS011;2119;48.828;12.396;2022-11-20T19:39:35;25.55;;;20.02;;
4210;SDS011;2119;48.828;12.396;2022-11-20T19:44:35;20.63;;;17.02;;
4210;SDS011;2119;48.828;12.396;2022-11-20T19:49:37;18.05;;;14.50;;
4210;SDS011;2119;48.828;12.396;2022-11-20T19:54:41;35.13;;;19.80;;
4210;SDS011;2119;48.828;12.396;2022-11-20T19:59:46;24.23;;;17.90;;
4210;SDS011;2119;48.828;12.396;2022-11-20T20:09:50;16.70;;;12.07;;
4210;SDS011;2119;48.828;12.396;2022-11-20T20:14:50;8.63;;;7.60;;
4210;SDS011;2119;48.828;12.396;2022-11-20T20:19:52;7.55;;;6.75;;
4210;SDS011;2119;48.828;12.396;2022-11-20T20:24:53;13.23;;;10.93;;
4210;SDS011;2119;48.828;12.396;2022-11-20T20:29:55;20.07;;;12.87;;
4210;SDS011;2119;48.828;12.396;2022-11-20T20:34:55;18.63;;;13.33;;
4210;SDS011;2119;48.828;12.396;2022-11-20T20:39:58;14.15;;;11.60;;
4210;SDS011;2119;48.828;12.396;2022-11-20T20:44:58;13.00;;;11.47;;
4210;SDS011;2119;48.828;12.396;2022-11-20T20:50:10;14.30;;;11.17;;
4210;SDS011;2119;48.828;12.396;2022-11-20T20:55:11;12.13;;;10.80;;
4210;SDS011;2119;48.828;12.396;2022-11-20T21:00:12;14.33;;;11.27;;
4210;SDS011;2119;48.828;12.396;2022-11-20T21:05:13;11.80;;;10.30;;
4210;SDS011;2119;48.828;12.396;2022-11-20T21:10:13;17.27;;;12.30;;
4210;SDS011;2119;48.828;12.396;2022-11-20T21:15:14;12.20;;;10.65;;
4210;SDS011;2119;48.828;12.396;2022-11-20T21:20:16;15.98;;;11.00;;
4210;SDS011;2119;48.828;12.396;2022-11-20T21:25:36;12.37;;;9.70;;
4210;SDS011;2119;48.828;12.396;2022-11-20T21:30:36;14.73;;;10.53;;
4210;SDS011;2119;48.828;12.396;2022-11-20T21:35:37;14.67;;;9.60;;
4210;SDS011;2119;48.828;12.396;2022-11-20T21:40:39;15.55;;;9.23;;
4210;SDS011;2119;48.828;12.396;2022-11-20T21:45:40;19.10;;;10.53;;
4210;SDS011;2119;48.828;12.396;2022-11-20T21:50:40;14.30;;;9.97;;
4210;SDS011;2119;48.828;12.396;2022-11-20T21:55:40;12.50;;;10.43;;
4210;SDS011;2119;48.828;12.396;2022-11-20T22:00:42;10.05;;;9.00;;
4210;SDS011;2119;48.828;12.396;2022-11-20T22:05:51;10.90;;;8.00;;
4210;SDS011;2119;48.828;12.396;2022-11-20T22:11:13;8.10;;;7.30;;
4210;SDS011;2119;48.828;12.396;2022-11-20T22:16:12;9.83;;;7.50;;
4210;SDS011;2119;48.828;12.396;2022-11-20T22:21:14;7.20;;;6.50;;
4210;SDS011;2119;48.828;12.396;2022-11-20T22:26:16;7.03;;;6.37;;
4210;SDS011;2119;48.828;12.396;2022-11-20T22:31:17;9.57;;;6.37;;
4210;SDS011;2119;48.828;12.396;2022-11-20T22:36:24;7.60;;;6.80;;
4210;SDS011;2119;48.828;12.396;2022-11-20T22:41:26;9.60;;;7.13;;
4210;SDS011;2119;48.828;12.396;2022-11-20T22:46:32;6.63;;;5.97;;
4210;SDS011;2119;48.828;12.396;2022-11-20T22:51:34;7.73;;;6.17;;
4210;SDS011;2119;48.828;12.396;2022-11-20T22:56:35;8.17;;;6.53;;
4210;SDS011;2119;48.828;12.396;2022-11-20T23:01:37;5.10;;;4.60;;
4210;SDS011;2119;48.828;12.396;2022-11-20T23:06:38;4.50;;;4.10;;
4210;SDS011;2119;48.828;12.396;2022-11-20T23:11:39;3.63;;;3.33;;
4210;SDS011;2119;48.828;12.396;2022-11-20T23:16:40;3.37;;;3.07;;
4210;SDS011;2119;48.828;12.396;2022-11-20T23:21:42;3.60;;;3.30;;
4210;SDS011;2119;48.828;12.396;2022-11-20T23:26:43;4.10;;;3.70;;
4210;SDS011;2119;48.828;12.396;2022-11-20T23:31:44;4.57;;;4.17;;
4210;SDS011;2119;48.828;12.396;2022-11-20T23:36:44;4.25;;;3.95;;
4210;SDS011;2119;48.828;12.396;2022-11-20T23:41:44;4.90;;;4.50;;
4210;SDS011;2119;48.828;12.396;2022-11-20T23:46:45;4.60;;;4.10;;
4210;SDS011;2119;48.828;12.396;2022-11-20T23:51:45;4.65;;;4.20;;
4210;SDS011;2119;48.828;12.396;2022-11-20T23:56:45;3.80;;;3.50;;
